Artisgracht — PCUI — position and weather

sailwx.info

Track history (hours):
 
Tides and Currents Weather Stations Pressure Air Temp Water Temp Dewpoint Dewpoint Depression Visibility Wind Speed Wind Dir Waves Ship Positions

Artisgracht

Last reported at 2017-Apr-21 13:55 UTC. Time now 2017-Apr-25 16:35 UTC.
Position N 52°06' E 004°16'.

Length 130 m; beam 19 m; draft 9 m.

Type: Fishing. MMSI: 244090401.

Date/timePositionNaut miles runAvg speedWind from/ knotsBaromVisibWave heightAir tempDewpointWater temp
2017-Apr-21 13:55N 52°06' E 004°16'0 0.5
2017-Apr-21 13:30N 52°06' E 004°16'0 0.0
2017-Apr-21 13:01N 52°06' E 004°16'0 0.0
2017-Apr-21 12:30N 52°06' E 004°16'0 0.0
2017-Apr-21 12:00N 52°06' E 004°16'0 0.0
2017-Apr-21 11:30N 52°06' E 004°16'0 0.0
2017-Apr-21 11:01N 52°06' E 004°16'0 0.0
2017-Apr-21 10:30N 52°06' E 004°16'0 0.0
2017-Apr-21 10:01N 52°06' E 004°16'0 0.9
2017-Apr-21 09:30N 52°06' E 004°15'1 1.7
2017-Apr-21 09:00N 52°07' E 004°16'0 0.6
2017-Apr-21 08:31N 52°07' E 004°16'1 2.6
2017-Apr-21 08:00N 52°08' E 004°17'2 4.5
2017-Apr-21 07:31N 52°11' E 004°18'0 1.0
2017-Apr-21 07:01N 52°10' E 004°17'1 1.6
2017-Apr-21 06:31N 52°10' E 004°17'1 1.9
2017-Apr-21 06:01N 52°09' E 004°16'1 2.4
2017-Apr-21 05:30N 52°08' E 004°14'2 4.5
2017-Apr-21 05:00N 52°06' E 004°15'0 0.9
2017-Apr-21 04:30N 52°06' E 004°16'0 0.0
2017-Apr-21 04:01N 52°06' E 004°16'0 0.0
2017-Apr-21 03:30N 52°06' E 004°16'0 0.0
2017-Apr-21 03:00N 52°06' E 004°16'0 0.0
2017-Apr-21 02:30N 52°06' E 004°16'0 0.0
2017-Apr-21 02:00N 52°06' E 004°16'0 0.0
2017-Apr-21 01:31N 52°06' E 004°16'0 0.0
2017-Apr-21 01:00N 52°06' E 004°16'0 0.0
2017-Apr-21 00:30N 52°06' E 004°16'0 0.0
2017-Apr-21 00:00N 52°06' E 004°16'0 0.0
2017-Apr-20 23:30N 52°06' E 004°16'0 0.0
2017-Apr-20 23:00N 52°06' E 004°16'0 0.0
2017-Apr-20 22:30N 52°06' E 004°16'0 0.0
2017-Apr-20 22:00N 52°06' E 004°16'0 0.0
2017-Apr-20 21:30N 52°06' E 004°16'0 0.0
2017-Apr-20 21:00N 52°06' E 004°16'0 0.0
2017-Apr-20 20:30N 52°06' E 004°16'0 0.0
2017-Apr-20 20:00N 52°06' E 004°16'0 0.0
2017-Apr-20 19:30N 52°06' E 004°16'0 0.0
2017-Apr-20 19:01N 52°06' E 004°16'0 0.0
2017-Apr-20 18:30N 52°06' E 004°16'2 3.9
2017-Apr-20 18:00N 52°08' E 004°14'2 4.0
2017-Apr-20 17:30N 52°09' E 004°16'2 4.0
2017-Apr-20 17:00N 52°11' E 004°18'2 4.2
2017-Apr-20 16:30N 52°09' E 004°17'3 5.4
2017-Apr-20 16:00N 52°06' E 004°15'1 1.3
2017-Apr-20 15:30N 52°06' E 004°16'0 0.0
2017-Apr-20 15:00N 52°06' E 004°16'0 0.0
2017-Apr-20 14:30N 52°06' E 004°16'0 0.0
2017-Apr-20 13:30N 52°06' E 004°16'0 0.0
2017-Apr-20 13:00N 52°06' E 004°16'0 0.0
2017-Apr-20 12:30N 52°06' E 004°16'0 0.0
2017-Apr-20 12:01N 52°06' E 004°16'0 0.0
2017-Apr-20 11:30N 52°06' E 004°16'0 0.0
2017-Apr-20 11:01N 52°06' E 004°16'0 0.5
2017-Apr-20 10:30N 52°06' E 004°16'0 0.0
2017-Apr-20 10:00N 52°06' E 004°16'0 0.0
2017-Apr-20 09:31N 52°06' E 004°16'1 2.3
2017-Apr-20 09:00N 52°07' E 004°14'3 6.2
2017-Apr-20 08:30N 52°08' E 004°09'2 5.0
2017-Apr-20 08:00N 52°08' E 004°06'1 1.8
2017-Apr-20 07:31N 52°07' E 004°05'1 1.7
2017-Apr-20 07:00N 52°07' E 004°04'1 2.0
2017-Apr-20 06:30N 52°06' E 004°03'1 1.2
2017-Apr-20 06:00N 52°05' E 004°03'3 5.5
2017-Apr-20 05:30N 52°06' E 004°07'3 5.7
2017-Apr-20 05:01N 52°06' E 004°12'3 5.3
2017-Apr-20 04:30N 52°06' E 004°16'0 0.3
2017-Apr-20 04:00N 52°06' E 004°16'0 0.0
2017-Apr-20 03:30N 52°06' E 004°16'0 0.0
2017-Apr-20 03:00N 52°06' E 004°16'0 0.0
2017-Apr-20 02:31N 52°06' E 004°16'0 0.0
2017-Apr-20 02:00N 52°06' E 004°16'0 0.0
2017-Apr-20 01:30N 52°06' E 004°16'0 0.0
2017-Apr-20 01:00N 52°06' E 004°16'0 0.0
2017-Apr-20 00:30N 52°06' E 004°16'0 0.0
2017-Apr-20 00:01N 52°06' E 004°16'0 0.0
2017-Apr-19 23:30N 52°06' E 004°16'0 0.0
2017-Apr-19 23:01N 52°06' E 004°16'0 0.0
2017-Apr-19 22:30N 52°06' E 004°16'0 0.0
2017-Apr-19 22:00N 52°06' E 004°16'0 0.0
2017-Apr-19 21:31N 52°06' E 004°16'0 0.0
2017-Apr-19 21:00N 52°06' E 004°16'0 0.0
2017-Apr-19 20:31N 52°06' E 004°16'0 0.0
2017-Apr-19 20:01N 52°06' E 004°16'0 0.0
2017-Apr-19 19:31N 52°06' E 004°16'0 0.0
2017-Apr-19 19:01N 52°06' E 004°16'0 0.0
2017-Apr-19 18:30N 52°06' E 004°16'0 0.0
2017-Apr-19 18:00N 52°06' E 004°16'0 0.0
2017-Apr-19 17:30N 52°06' E 004°16'0 0.0
2017-Apr-19 17:01N 52°06' E 004°16'0 0.0
2017-Apr-19 16:30N 52°06' E 004°16'0 0.0
2017-Apr-19 16:00N 52°06' E 004°16'0 0.0
2017-Apr-19 15:30N 52°06' E 004°16'0 0.0
2017-Apr-19 15:00N 52°06' E 004°16'0 0.0
2017-Apr-19 14:30N 52°06' E 004°16'0 0.0
2017-Apr-19 13:30N 52°06' E 004°16'0 0.0
2017-Apr-19 13:00N 52°06' E 004°16'1 1.5
2017-Apr-19 12:30N 52°06' E 004°15'3 6.5
2017-Apr-19 12:00N 52°07' E 004°10'3 6.2
2017-Apr-19 11:30N 52°08' E 004°05'2 4.2
2017-Apr-19 11:00N 52°06' E 004°03'1 2.0
2017-Apr-19 10:31N 52°05' E 004°03'3 5.6
2017-Apr-19 10:01N 52°07' E 004°07'3 5.2
2017-Apr-19 09:30N 52°08' E 004°11'3 5.3
2017-Apr-19 09:00N 52°07' E 004°15'1 1.0
2017-Apr-19 08:30N 52°07' E 004°16'1 1.9
2017-Apr-19 08:01N 52°06' E 004°16'0 0.0
2017-Apr-19 07:31N 52°06' E 004°16'0 0.0
2017-Apr-19 07:00N 52°06' E 004°16'0 0.0
2017-Apr-19 06:30N 52°06' E 004°16'0 0.0
2017-Apr-19 06:00N 52°06' E 004°16'0 0.0
2017-Apr-19 05:30N 52°06' E 004°16'0 0.0
2017-Apr-19 05:00N 52°06' E 004°16'0 0.0
2017-Apr-19 04:30N 52°06' E 004°16'0 0.0
2017-Apr-19 04:01N 52°06' E 004°16'0 0.0
2017-Apr-19 03:30N 52°06' E 004°16'0 0.0
2017-Apr-19 03:00N 52°06' E 004°16'0 0.0
2017-Apr-19 02:30N 52°06' E 004°16'0 0.0
2017-Apr-19 02:00N 52°06' E 004°16'0 0.0
2017-Apr-19 01:30N 52°06' E 004°16'0 0.0
2017-Apr-19 01:00N 52°06' E 004°16'0 0.0
2017-Apr-19 00:30N 52°06' E 004°16'0 0.0
2017-Apr-19 00:00N 52°06' E 004°16'0 0.0
2017-Apr-18 23:30N 52°06' E 004°16'0 0.0
2017-Apr-18 23:01N 52°06' E 004°16'0 0.0
2017-Apr-18 22:30N 52°06' E 004°16'0 0.0
2017-Apr-18 22:00N 52°06' E 004°16'0 0.0
2017-Apr-18 21:31N 52°06' E 004°16'0 0.0
2017-Apr-18 21:00N 52°06' E 004°16'0 0.0
2017-Apr-18 20:30N 52°06' E 004°16'0 0.0
2017-Apr-18 20:00N 52°06' E 004°16'0 0.0
2017-Apr-18 19:31N 52°06' E 004°16'0 0.0
2017-Apr-18 19:00N 52°06' E 004°16'0 0.0
2017-Apr-18 18:30N 52°06' E 004°16'0 0.0
2017-Apr-18 18:00N 52°06' E 004°16'0 0.0
2017-Apr-18 17:30N 52°06' E 004°16'0 0.0
2017-Apr-18 17:00N 52°06' E 004°16'0 0.0
2017-Apr-18 16:31N 52°06' E 004°16'0 0.0
2017-Apr-18 16:00N 52°06' E 004°16'0 0.0
2017-Apr-18 15:30N 52°06' E 004°16'0 0.0
2017-Apr-18 15:01N 52°06' E 004°16'0 0.0
2017-Apr-18 14:30N 52°06' E 004°16'0 0.0
2017-Apr-16 19:25N 52°06' E 004°16'0 0.0
2017-Apr-16 19:00N 52°06' E 004°16'0 0.0
2017-Apr-16 18:30N 52°06' E 004°16'0 0.0
2017-Apr-16 18:00N 52°06' E 004°16'0 0.0
2017-Apr-16 17:30N 52°06' E 004°16'0 0.0
2017-Apr-16 17:00N 52°06' E 004°16'0 0.0
2017-Apr-16 16:30N 52°06' E 004°16'0 0.0
2017-Apr-16 16:00N 52°06' E 004°16'0 0.0
2017-Apr-16 15:30N 52°06' E 004°16'0 0.0
2017-Apr-16 15:00N 52°06' E 004°16'  
2017-Apr-13 12:55N 52°06' E 004°16'0 0.0
2017-Apr-13 08:06N 52°06' E 004°16'0 0.0
2017-Apr-13 08:00N 52°06' E 004°16'1 1.2
2017-Apr-13 07:30N 52°06' E 004°15'0 0.8
2017-Apr-13 07:00N 52°06' E 004°16'0 0.7
2017-Apr-13 06:30N 52°06' E 004°16'24 1.4
2017-Apr-12 13:23N 52°27' E 004°35'0 0.0
2017-Apr-12 13:00N 52°27' E 004°35'  
Track history (hours):
 
Tides and Currents Weather Stations Pressure Air Temp Water Temp Dewpoint Dewpoint Depression Visibility Wind Speed Wind Dir Waves Ship Positions

Artisgracht

Last reported at 2017-Apr-21 13:55 UTC. Time now 2017-Apr-25 16:35 UTC.
Position N 52°06' E 004°16'.

Length 130 m; beam 19 m; draft 9 m.

Type: Fishing. MMSI: 244090401.

Date/timePositionNaut miles runAvg speedWind from/ knotsBaromVisibWave heightAir tempDewpointWater temp
2017-Apr-21 13:55N 52°06' E 004°16'0 0.5
2017-Apr-21 13:30N 52°06' E 004°16'0 0.0
2017-Apr-21 13:01N 52°06' E 004°16'0 0.0
2017-Apr-21 12:30N 52°06' E 004°16'0 0.0
2017-Apr-21 12:00N 52°06' E 004°16'0 0.0
2017-Apr-21 11:30N 52°06' E 004°16'0 0.0
2017-Apr-21 11:01N 52°06' E 004°16'0 0.0
2017-Apr-21 10:30N 52°06' E 004°16'0 0.0
2017-Apr-21 10:01N 52°06' E 004°16'0 0.9
2017-Apr-21 09:30N 52°06' E 004°15'1 1.7
2017-Apr-21 09:00N 52°07' E 004°16'0 0.6
2017-Apr-21 08:31N 52°07' E 004°16'1 2.6
2017-Apr-21 08:00N 52°08' E 004°17'2 4.5
2017-Apr-21 07:31N 52°11' E 004°18'0 1.0
2017-Apr-21 07:01N 52°10' E 004°17'1 1.6
2017-Apr-21 06:31N 52°10' E 004°17'1 1.9
2017-Apr-21 06:01N 52°09' E 004°16'1 2.4
2017-Apr-21 05:30N 52°08' E 004°14'2 4.5
2017-Apr-21 05:00N 52°06' E 004°15'0 0.9
2017-Apr-21 04:30N 52°06' E 004°16'0 0.0
2017-Apr-21 04:01N 52°06' E 004°16'0 0.0
2017-Apr-21 03:30N 52°06' E 004°16'0 0.0
2017-Apr-21 03:00N 52°06' E 004°16'0 0.0
2017-Apr-21 02:30N 52°06' E 004°16'0 0.0
2017-Apr-21 02:00N 52°06' E 004°16'0 0.0
2017-Apr-21 01:31N 52°06' E 004°16'0 0.0
2017-Apr-21 01:00N 52°06' E 004°16'0 0.0
2017-Apr-21 00:30N 52°06' E 004°16'0 0.0
2017-Apr-21 00:00N 52°06' E 004°16'0 0.0
2017-Apr-20 23:30N 52°06' E 004°16'0 0.0
2017-Apr-20 23:00N 52°06' E 004°16'0 0.0
2017-Apr-20 22:30N 52°06' E 004°16'0 0.0
2017-Apr-20 22:00N 52°06' E 004°16'0 0.0
2017-Apr-20 21:30N 52°06' E 004°16'0 0.0
2017-Apr-20 21:00N 52°06' E 004°16'0 0.0
2017-Apr-20 20:30N 52°06' E 004°16'0 0.0
2017-Apr-20 20:00N 52°06' E 004°16'0 0.0
2017-Apr-20 19:30N 52°06' E 004°16'0 0.0
2017-Apr-20 19:01N 52°06' E 004°16'0 0.0
2017-Apr-20 18:30N 52°06' E 004°16'2 3.9
2017-Apr-20 18:00N 52°08' E 004°14'2 4.0
2017-Apr-20 17:30N 52°09' E 004°16'2 4.0
2017-Apr-20 17:00N 52°11' E 004°18'2 4.2
2017-Apr-20 16:30N 52°09' E 004°17'3 5.4
2017-Apr-20 16:00N 52°06' E 004°15'1 1.3
2017-Apr-20 15:30N 52°06' E 004°16'0 0.0
2017-Apr-20 15:00N 52°06' E 004°16'0 0.0
2017-Apr-20 14:30N 52°06' E 004°16'0 0.0
2017-Apr-20 13:30N 52°06' E 004°16'0 0.0
2017-Apr-20 13:00N 52°06' E 004°16'0 0.0
2017-Apr-20 12:30N 52°06' E 004°16'0 0.0
2017-Apr-20 12:01N 52°06' E 004°16'0 0.0
2017-Apr-20 11:30N 52°06' E 004°16'0 0.0
2017-Apr-20 11:01N 52°06' E 004°16'0 0.5
2017-Apr-20 10:30N 52°06' E 004°16'0 0.0
2017-Apr-20 10:00N 52°06' E 004°16'0 0.0
2017-Apr-20 09:31N 52°06' E 004°16'1 2.3
2017-Apr-20 09:00N 52°07' E 004°14'3 6.2
2017-Apr-20 08:30N 52°08' E 004°09'2 5.0
2017-Apr-20 08:00N 52°08' E 004°06'1 1.8
2017-Apr-20 07:31N 52°07' E 004°05'1 1.7
2017-Apr-20 07:00N 52°07' E 004°04'1 2.0
2017-Apr-20 06:30N 52°06' E 004°03'1 1.2
2017-Apr-20 06:00N 52°05' E 004°03'3 5.5
2017-Apr-20 05:30N 52°06' E 004°07'3 5.7
2017-Apr-20 05:01N 52°06' E 004°12'3 5.3
2017-Apr-20 04:30N 52°06' E 004°16'0 0.3
2017-Apr-20 04:00N 52°06' E 004°16'0 0.0
2017-Apr-20 03:30N 52°06' E 004°16'0 0.0
2017-Apr-20 03:00N 52°06' E 004°16'0 0.0
2017-Apr-20 02:31N 52°06' E 004°16'0 0.0
2017-Apr-20 02:00N 52°06' E 004°16'0 0.0
2017-Apr-20 01:30N 52°06' E 004°16'0 0.0
2017-Apr-20 01:00N 52°06' E 004°16'0 0.0
2017-Apr-20 00:30N 52°06' E 004°16'0 0.0
2017-Apr-20 00:01N 52°06' E 004°16'0 0.0
2017-Apr-19 23:30N 52°06' E 004°16'0 0.0
2017-Apr-19 23:01N 52°06' E 004°16'0 0.0
2017-Apr-19 22:30N 52°06' E 004°16'0 0.0
2017-Apr-19 22:00N 52°06' E 004°16'0 0.0
2017-Apr-19 21:31N 52°06' E 004°16'0 0.0
2017-Apr-19 21:00N 52°06' E 004°16'0 0.0
2017-Apr-19 20:31N 52°06' E 004°16'0 0.0
2017-Apr-19 20:01N 52°06' E 004°16'0 0.0
2017-Apr-19 19:31N 52°06' E 004°16'0 0.0
2017-Apr-19 19:01N 52°06' E 004°16'0 0.0
2017-Apr-19 18:30N 52°06' E 004°16'0 0.0
2017-Apr-19 18:00N 52°06' E 004°16'0 0.0
2017-Apr-19 17:30N 52°06' E 004°16'0 0.0
2017-Apr-19 17:01N 52°06' E 004°16'0 0.0
2017-Apr-19 16:30N 52°06' E 004°16'0 0.0
2017-Apr-19 16:00N 52°06' E 004°16'0 0.0
2017-Apr-19 15:30N 52°06' E 004°16'0 0.0
2017-Apr-19 15:00N 52°06' E 004°16'0 0.0
2017-Apr-19 14:30N 52°06' E 004°16'0 0.0
2017-Apr-19 13:30N 52°06' E 004°16'0 0.0
2017-Apr-19 13:00N 52°06' E 004°16'1 1.5
2017-Apr-19 12:30N 52°06' E 004°15'3 6.5
2017-Apr-19 12:00N 52°07' E 004°10'3 6.2
2017-Apr-19 11:30N 52°08' E 004°05'2 4.2
2017-Apr-19 11:00N 52°06' E 004°03'1 2.0
2017-Apr-19 10:31N 52°05' E 004°03'3 5.6
2017-Apr-19 10:01N 52°07' E 004°07'3 5.2
2017-Apr-19 09:30N 52°08' E 004°11'3 5.3
2017-Apr-19 09:00N 52°07' E 004°15'1 1.0
2017-Apr-19 08:30N 52°07' E 004°16'1 1.9
2017-Apr-19 08:01N 52°06' E 004°16'0 0.0
2017-Apr-19 07:31N 52°06' E 004°16'0 0.0
2017-Apr-19 07:00N 52°06' E 004°16'0 0.0
2017-Apr-19 06:30N 52°06' E 004°16'0 0.0
2017-Apr-19 06:00N 52°06' E 004°16'0 0.0
2017-Apr-19 05:30N 52°06' E 004°16'0 0.0
2017-Apr-19 05:00N 52°06' E 004°16'0 0.0
2017-Apr-19 04:30N 52°06' E 004°16'0 0.0
2017-Apr-19 04:01N 52°06' E 004°16'0 0.0
2017-Apr-19 03:30N 52°06' E 004°16'0 0.0
2017-Apr-19 03:00N 52°06' E 004°16'0 0.0
2017-Apr-19 02:30N 52°06' E 004°16'0 0.0
2017-Apr-19 02:00N 52°06' E 004°16'0 0.0
2017-Apr-19 01:30N 52°06' E 004°16'0 0.0
2017-Apr-19 01:00N 52°06' E 004°16'0 0.0
2017-Apr-19 00:30N 52°06' E 004°16'0 0.0
2017-Apr-19 00:00N 52°06' E 004°16'0 0.0
2017-Apr-18 23:30N 52°06' E 004°16'0 0.0
2017-Apr-18 23:01N 52°06' E 004°16'0 0.0
2017-Apr-18 22:30N 52°06' E 004°16'0 0.0
2017-Apr-18 22:00N 52°06' E 004°16'0 0.0
2017-Apr-18 21:31N 52°06' E 004°16'0 0.0
2017-Apr-18 21:00N 52°06' E 004°16'0 0.0
2017-Apr-18 20:30N 52°06' E 004°16'0 0.0
2017-Apr-18 20:00N 52°06' E 004°16'0 0.0
2017-Apr-18 19:31N 52°06' E 004°16'0 0.0
2017-Apr-18 19:00N 52°06' E 004°16'0 0.0
2017-Apr-18 18:30N 52°06' E 004°16'0 0.0
2017-Apr-18 18:00N 52°06' E 004°16'0 0.0
2017-Apr-18 17:30N 52°06' E 004°16'0 0.0
2017-Apr-18 17:00N 52°06' E 004°16'0 0.0
2017-Apr-18 16:31N 52°06' E 004°16'0 0.0
2017-Apr-18 16:00N 52°06' E 004°16'0 0.0
2017-Apr-18 15:30N 52°06' E 004°16'0 0.0
2017-Apr-18 15:01N 52°06' E 004°16'0 0.0
2017-Apr-18 14:30N 52°06' E 004°16'0 0.0
2017-Apr-16 19:25N 52°06' E 004°16'0 0.0
2017-Apr-16 19:00N 52°06' E 004°16'0 0.0
2017-Apr-16 18:30N 52°06' E 004°16'0 0.0
2017-Apr-16 18:00N 52°06' E 004°16'0 0.0
2017-Apr-16 17:30N 52°06' E 004°16'0 0.0
2017-Apr-16 17:00N 52°06' E 004°16'0 0.0
2017-Apr-16 16:30N 52°06' E 004°16'0 0.0
2017-Apr-16 16:00N 52°06' E 004°16'0 0.0
2017-Apr-16 15:30N 52°06' E 004°16'0 0.0
2017-Apr-16 15:00N 52°06' E 004°16'  
2017-Apr-13 12:55N 52°06' E 004°16'0 0.0
2017-Apr-13 08:06N 52°06' E 004°16'0 0.0
2017-Apr-13 08:00N 52°06' E 004°16'1 1.2
2017-Apr-13 07:30N 52°06' E 004°15'0 0.8
2017-Apr-13 07:00N 52°06' E 004°16'0 0.7
2017-Apr-13 06:30N 52°06' E 004°16'24 1.4
2017-Apr-12 13:23N 52°27' E 004°35'0 0.0
2017-Apr-12 13:00N 52°27' E 004°35'  

Dump ship's entire track history